Time;durP1;ratioP1;P1;durP2;ratioP2;P2;SDS_P1;SDS_P2;PMS_P1;PMS_P2;Temp;Humidity;BMP_temperature;BMP_pressure;BME280_temperature;BME280_humidity;BME280_pressure;Samples;Min_cycle;Max_cycle;Signal;HPM_P1;HPM_P2
2021/09/10 00:02:02;;;;;;;13.55;9.23;;;;;;;19.48;61.63;98622.13;5057803;28;20081;-61
2021/09/10 00:04:28;;;;;;;12.77;8.88;;;;;;;19.48;61.35;98619.47;5082445;28;20035;-61
2021/09/10 00:06:53;;;;;;;12.15;9.00;;;;;;;19.45;60.99;98610.13;5088692;28;20612;-62
2021/09/10 00:09:19;;;;;;;12.90;8.70;;;;;;;19.36;61.71;98606.06;5069230;28;20039;-61
2021/09/10 00:11:44;;;;;;;12.48;9.00;;;;;;;19.42;62.06;98625.53;5074820;28;20032;-62
2021/09/10 00:14:10;;;;;;;11.95;8.90;;;;;;;19.44;61.80;98623.50;5077956;28;20090;-63
2021/09/10 00:16:36;;;;;;;11.45;9.23;;;;;;;19.39;61.52;98624.13;5067635;28;20039;-62
2021/09/10 00:19:02;;;;;;;12.77;8.90;;;;;;;19.36;61.57;98620.03;5074410;28;20032;-61
2021/09/10 00:21:27;;;;;;;11.52;9.13;;;;;;;19.40;61.77;98612.56;5089043;28;20024;-61
2021/09/10 00:23:53;;;;;;;11.48;8.75;;;;;;;19.37;61.33;98616.41;5070710;28;20524;-61
2021/09/10 00:26:18;;;;;;;11.02;9.02;;;;;;;19.35;61.46;98621.06;5086959;28;20892;-62
2021/09/10 00:28:44;;;;;;;10.95;8.73;;;;;;;19.06;62.15;98588.00;5073408;28;20039;-61
2021/09/10 00:31:09;;;;;;;13.73;9.20;;;;;;;19.25;62.01;98619.84;5085538;28;20023;-63
2021/09/10 00:33:35;;;;;;;13.25;9.15;;;;;;;19.25;61.84;98614.56;5069233;28;20042;-61
2021/09/10 00:36:00;;;;;;;10.93;8.80;;;;;;;18.99;62.05;98590.59;5074004;28;20107;-61
2021/09/10 00:38:26;;;;;;;12.50;9.43;;;;;;;19.16;61.99;98606.03;5078424;28;20559;-65
2021/09/10 00:40:52;;;;;;;11.50;9.20;;;;;;;19.13;62.78;98625.72;5074457;28;20471;-61
2021/09/10 00:43:17;;;;;;;11.38;9.20;;;;;;;18.97;62.60;98595.25;5088475;28;20028;-61
2021/09/10 00:45:46;;;;;;;11.75;9.48;;;;;;;19.20;63.03;98626.53;5078606;28;20359;-60
2021/09/10 00:48:15;;;;;;;13.27;9.27;;;;;;;19.19;63.32;98622.25;5074216;28;20535;-62
2021/09/10 00:50:41;;;;;;;11.98;9.30;;;;;;;19.16;63.52;98616.59;5073271;28;20044;-63
2021/09/10 00:53:07;;;;;;;10.10;8.43;;;;;;;18.86;63.41;98569.50;5072557;28;20038;-61
2021/09/10 00:55:33;;;;;;;10.48;8.88;;;;;;;18.93;63.55;98585.31;5061841;28;20028;-62
2021/09/10 00:57:58;;;;;;;11.65;9.32;;;;;;;18.89;63.73;98576.19;5090907;28;20036;-60
2021/09/10 01:00:23;;;;;;;14.70;9.57;;;;;;;18.91;63.80;98569.72;5071953;28;20028;-61
2021/09/10 01:02:49;;;;;;;12.57;9.40;;;;;;;19.06;64.03;98601.16;5061847;28;20156;-61
2021/09/10 01:05:14;;;;;;;13.40;9.30;;;;;;;18.86;64.26;98574.78;5062079;28;20031;-61
2021/09/10 01:07:41;;;;;;;13.85;9.73;;;;;;;18.90;63.75;98572.56;5072693;28;20055;-60
2021/09/10 01:10:07;;;;;;;15.15;9.57;;;;;;;19.09;63.88;98605.22;5071056;28;20076;-63
2021/09/10 01:12:33;;;;;;;13.23;9.77;;;;;;;18.85;63.73;98564.44;5076900;28;20031;-60
2021/09/10 01:15:00;;;;;;;11.73;8.98;;;;;;;18.89;63.90;98579.66;5089899;28;20036;-63
2021/09/10 01:17:26;;;;;;;11.60;9.63;;;;;;;19.07;63.53;98609.88;5070721;28;20561;-64
2021/09/10 01:19:51;;;;;;;12.30;9.02;;;;;;;19.11;63.85;98611.94;5060829;28;20023;-62
2021/09/10 01:22:17;;;;;;;12.70;9.48;;;;;;;19.15;63.57;98607.06;5074108;28;20028;-61
2021/09/10 01:25:15;;;;;;;11.30;9.02;;;;;;;19.11;63.74;98609.28;5068961;28;20028;-61
2021/09/10 01:27:53;;;;;;;12.70;9.20;;;;;;;18.99;63.28;98576.63;5092926;28;20032;-60
2021/09/10 01:30:22;;;;;;;11.13;8.73;;;;;;;19.15;63.54;98615.78;5073010;28;20066;-61
2021/09/10 01:32:48;;;;;;;10.95;9.18;;;;;;;19.15;63.67;98614.97;5069851;28;20099;-61
2021/09/10 01:35:13;;;;;;;13.15;9.70;;;;;;;19.07;63.87;98612.50;5073796;28;20561;-61
2021/09/10 01:37:39;;;;;;;12.15;9.32;;;;;;;19.09;63.51;98602.56;5070773;28;20031;-61
2021/09/10 01:40:06;;;;;;;11.75;9.68;;;;;;;19.20;63.61;98621.25;5061640;28;20035;-61
2021/09/10 01:42:31;;;;;;;11.20;9.23;;;;;;;19.12;63.59;98618.00;5070696;28;20038;-61
2021/09/10 01:44:57;;;;;;;14.00;9.80;;;;;;;19.10;63.93;98623.47;5063552;28;20218;-63
2021/09/10 01:47:22;;;;;;;13.45;9.80;;;;;;;19.16;63.19;98627.13;5082524;28;20131;-61
2021/09/10 01:49:47;;;;;;;12.40;9.57;;;;;;;19.00;63.58;98605.41;5074360;28;20106;-62
2021/09/10 01:52:13;;;;;;;11.50;9.25;;;;;;;18.92;63.33;98583.69;5075374;28;20035;-63
2021/09/10 01:54:38;;;;;;;11.63;9.40;;;;;;;19.16;63.29;98624.50;5091989;28;20046;-61
2021/09/10 01:57:04;;;;;;;13.73;9.55;;;;;;;18.95;63.04;98583.31;5056955;28;20102;-62
2021/09/10 01:59:29;;;;;;;14.38;9.82;;;;;;;19.04;63.10;98591.81;5087524;28;20652;-62
2021/09/10 02:01:55;;;;;;;11.20;9.38;;;;;;;19.23;63.28;98625.31;5075157;28;20034;-61
2021/09/10 02:04:21;;;;;;;12.48;9.57;;;;;;;18.98;62.88;98588.16;5077922;28;20950;-61
2021/09/10 02:06:47;;;;;;;12.05;8.73;;;;;;;19.19;63.07;98630.16;5073205;28;20036;-61
2021/09/10 02:09:12;;;;;;;12.40;9.55;;;;;;;19.12;63.04;98615.38;5089664;28;20389;-60
2021/09/10 02:11:38;;;;;;;12.02;9.30;;;;;;;19.12;62.85;98618.00;5089638;28;20103;-60
2021/09/10 02:14:04;;;;;;;11.85;9.23;;;;;;;19.15;63.08;98620.25;5095710;28;20398;-64
2021/09/10 02:16:29;;;;;;;12.40;9.75;;;;;;;19.21;63.02;98611.53;5055110;28;20110;-60
2021/09/10 02:18:55;;;;;;;12.55;9.55;;;;;;;19.22;63.07;98618.44;5078923;28;20036;-60
2021/09/10 02:21:20;;;;;;;11.85;9.60;;;;;;;19.23;62.74;98614.78;5069832;28;20031;-61
2021/09/10 02:23:46;;;;;;;11.70;9.70;;;;;;;19.27;63.00;98618.63;5068098;28;20044;-63
2021/09/10 02:26:11;;;;;;;12.52;9.02;;;;;;;19.19;63.00;98608.28;5075817;28;20027;-62
2021/09/10 02:28:36;;;;;;;11.90;9.23;;;;;;;19.18;62.71;98609.28;5056176;28;20032;-61
2021/09/10 02:31:02;;;;;;;12.65;9.40;;;;;;;19.19;63.47;98618.81;5073199;28;20035;-62
2021/09/10 02:33:28;;;;;;;12.30;9.27;;;;;;;19.01;63.58;98588.56;5087867;28;20492;-61
2021/09/10 02:35:54;;;;;;;11.30;8.95;;;;;;;19.15;62.92;98607.88;5078891;28;20895;-61
2021/09/10 02:38:21;;;;;;;12.07;9.57;;;;;;;18.98;62.60;98585.53;5078136;28;20106;-62
2021/09/10 02:40:46;;;;;;;11.82;9.35;;;;;;;19.19;62.77;98619.63;5100653;28;20036;-62
2021/09/10 02:43:11;;;;;;;14.07;9.13;;;;;;;19.14;63.06;98611.50;5088126;28;20088;-62
2021/09/10 02:45:37;;;;;;;12.82;9.25;;;;;;;19.23;63.16;98619.25;5050877;28;20178;-62
2021/09/10 02:48:02;;;;;;;13.82;9.43;;;;;;;19.17;62.94;98608.47;5081290;28;20020;-61
2021/09/10 02:50:28;;;;;;;12.05;8.88;;;;;;;19.30;62.30;98604.25;5070610;28;20028;-61
2021/09/10 02:52:53;;;;;;;10.60;8.65;;;;;;;19.19;62.64;98603.00;5077024;28;20051;-63
2021/09/10 02:55:19;;;;;;;13.20;9.30;;;;;;;19.15;62.79;98602.59;5062672;28;20032;-63
2021/09/10 02:57:44;;;;;;;11.73;9.60;;;;;;;19.14;62.55;98606.22;5056820;28;20035;-60
2021/09/10 03:00:10;;;;;;;12.80;9.77;;;;;;;19.13;62.89;98604.63;5073743;28;20534;-62
2021/09/10 03:02:36;;;;;;;13.13;9.52;;;;;;;19.17;62.95;98605.03;5100787;28;20586;-62
2021/09/10 03:05:02;;;;;;;10.30;8.95;;;;;;;19.14;63.19;98600.97;5078351;28;20374;-61
2021/09/10 03:07:27;;;;;;;13.77;9.73;;;;;;;19.06;63.62;98597.72;5093463;28;20526;-61
2021/09/10 03:09:53;;;;;;;12.73;9.38;;;;;;;19.13;63.63;98609.91;5064442;28;20146;-61
2021/09/10 03:12:18;;;;;;;11.02;9.15;;;;;;;19.16;62.89;98603.41;5070186;28;20328;-63
2021/09/10 03:14:43;;;;;;;11.23;9.73;;;;;;;18.89;63.32;98557.75;5093623;28;20039;-63
2021/09/10 03:17:09;;;;;;;11.65;9.02;;;;;;;19.13;63.53;98603.78;5076362;28;20039;-61
2021/09/10 03:19:34;;;;;;;12.55;9.30;;;;;;;19.07;63.74;98597.50;5076248;28;20135;-60
2021/09/10 03:21:59;;;;;;;13.27;9.38;;;;;;;18.90;63.45;98559.38;5065642;28;20019;-60
2021/09/10 03:24:25;;;;;;;11.45;9.85;;;;;;;19.12;63.54;98603.00;5077083;28;20035;-60
2021/09/10 03:26:50;;;;;;;11.45;9.27;;;;;;;19.09;63.39;98605.22;5072347;28;20073;-60
2021/09/10 03:29:16;;;;;;;13.18;9.65;;;;;;;18.98;63.47;98577.63;5072202;28;20475;-61
2021/09/10 03:31:41;;;;;;;15.18;9.27;;;;;;;19.08;63.60;98601.78;5075241;28;20044;-62
2021/09/10 03:34:07;;;;;;;11.57;9.23;;;;;;;19.17;63.61;98607.69;5091528;28;20028;-62
2021/09/10 03:36:32;;;;;;;12.10;9.48;;;;;;;18.92;63.81;98566.06;5054555;28;20031;-60
2021/09/10 03:38:58;;;;;;;12.93;10.20;;;;;;;19.09;63.77;98589.41;5075254;28;20027;-62
2021/09/10 03:41:23;;;;;;;14.93;8.55;;;;;;;19.20;63.38;98597.53;5073523;28;20034;-61
2021/09/10 03:43:52;;;;;;;13.18;9.52;;;;;;;19.13;63.45;98593.25;5067174;28;20040;-61
2021/09/10 03:46:18;;;;;;;12.60;9.48;;;;;;;19.02;63.60;98574.41;5071843;28;20011;-62
2021/09/10 03:48:43;;;;;;;13.00;9.60;;;;;;;19.22;63.65;98597.34;5062356;28;20036;-61
2021/09/10 03:51:09;;;;;;;14.32;9.63;;;;;;;19.20;63.75;98594.91;5066316;28;20115;-61
2021/09/10 03:53:34;;;;;;;12.95;9.45;;;;;;;18.98;63.92;98567.09;5090362;28;20134;-61
2021/09/10 03:56:00;;;;;;;11.20;9.60;;;;;;;19.25;63.59;98596.94;5088256;28;20020;-62
2021/09/10 03:58:25;;;;;;;11.48;9.73;;;;;;;19.27;63.40;98589.63;5075345;28;20035;-63
2021/09/10 04:00:50;;;;;;;11.35;9.48;;;;;;;19.25;63.11;98582.94;5078381;28;20069;-61
2021/09/10 04:03:16;;;;;;;13.77;9.35;;;;;;;18.93;62.80;98533.44;5092196;28;20035;-61
2021/09/10 04:05:41;;;;;;;13.82;9.85;;;;;;;19.29;62.83;98587.59;5095839;28;20263;-61
2021/09/10 04:08:06;;;;;;;11.25;9.52;;;;;;;19.33;63.08;98577.47;5090340;28;20165;-61
2021/09/10 04:10:32;;;;;;;15.45;10.30;;;;;;;19.32;63.21;98579.28;5074247;28;20619;-61
2021/09/10 04:12:57;;;;;;;12.50;9.40;;;;;;;19.26;63.31;98580.09;5089306;28;20481;-61
2021/09/10 04:15:23;;;;;;;12.63;10.02;;;;;;;19.26;63.74;98585.38;5053802;28;20143;-62
2021/09/10 04:17:48;;;;;;;13.40;10.43;;;;;;;19.36;63.55;98590.25;5088170;28;20118;-60
2021/09/10 04:20:13;;;;;;;11.98;9.88;;;;;;;19.18;63.70;98567.94;5073273;28;20489;-61
2021/09/10 04:22:42;;;;;;;12.57;9.43;;;;;;;19.30;63.52;98591.06;5074379;28;20164;-62
2021/09/10 04:25:08;;;;;;;10.97;8.70;;;;;;;19.28;63.81;98580.72;5069771;28;20031;-61
2021/09/10 04:27:34;;;;;;;12.45;9.98;;;;;;;18.97;64.10;98557.56;5079317;28;20277;-61
2021/09/10 04:29:59;;;;;;;11.63;9.98;;;;;;;19.24;63.73;98579.50;5066210;28;20456;-61
2021/09/10 04:32:25;;;;;;;11.57;9.82;;;;;;;19.24;64.02;98587.41;5066163;28;20032;-60
2021/09/10 04:34:51;;;;;;;12.07;9.30;;;;;;;19.07;63.74;98559.81;5090071;28;20024;-61
2021/09/10 04:37:16;;;;;;;11.05;9.48;;;;;;;19.29;63.83;98592.88;5068102;28;20089;-61
2021/09/10 04:39:42;;;;;;;12.75;10.30;;;;;;;19.09;63.97;98570.94;5070641;28;20457;-61
2021/09/10 04:42:08;;;;;;;14.25;10.07;;;;;;;19.22;64.35;98599.97;5066968;28;20054;-61
2021/09/10 04:44:33;;;;;;;16.15;10.45;;;;;;;19.23;64.21;98598.94;5075955;28;20409;-62
2021/09/10 04:46:59;;;;;;;10.98;9.05;;;;;;;19.26;64.08;98598.56;5070432;28;20027;-61
2021/09/10 04:49:24;;;;;;;11.93;9.55;;;;;;;19.20;64.07;98592.28;5060584;28;20132;-62
2021/09/10 04:51:50;;;;;;;12.93;9.65;;;;;;;19.20;64.23;98601.97;5081769;28;20020;-62
2021/09/10 04:54:16;;;;;;;14.05;9.88;;;;;;;19.20;64.28;98604.63;5073701;28;20458;-61
2021/09/10 04:56:42;;;;;;;11.55;9.80;;;;;;;19.16;64.27;98598.94;5089464;28;21988;-62
2021/09/10 04:59:08;;;;;;;11.05;9.32;;;;;;;19.25;64.31;98610.09;5091842;28;20027;-62
2021/09/10 05:01:33;;;;;;;15.02;9.48;;;;;;;19.21;64.53;98603.63;5074812;28;20023;-60
2021/09/10 05:03:59;;;;;;;13.05;9.50;;;;;;;19.19;64.47;98603.81;5054669;28;20066;-63
2021/09/10 05:06:25;;;;;;;12.63;9.48;;;;;;;19.29;64.58;98607.88;5068320;28;20035;-62
2021/09/10 05:08:50;;;;;;;14.27;9.60;;;;;;;18.94;64.70;98560.59;5097903;28;20032;-61
2021/09/10 05:11:16;;;;;;;11.60;9.60;;;;;;;19.22;65.21;98615.78;5074381;28;20132;-60
2021/09/10 05:13:41;;;;;;;12.05;9.90;;;;;;;19.09;64.94;98589.41;5071589;28;20059;-63
2021/09/10 05:16:07;;;;;;;12.50;10.05;;;;;;;19.19;65.07;98614.34;5088510;28;20106;-62
2021/09/10 05:18:32;;;;;;;13.88;10.18;;;;;;;19.25;65.17;98618.00;5074635;28;20031;-62
2021/09/10 05:20:59;;;;;;;13.68;10.30;;;;;;;19.21;64.91;98620.25;5065165;28;20728;-62
2021/09/10 05:23:24;;;;;;;12.15;10.25;;;;;;;19.23;64.82;98621.88;5095847;28;20704;-61
2021/09/10 05:25:50;;;;;;;10.77;9.48;;;;;;;19.25;64.77;98630.38;5094468;28;20030;-61
2021/09/10 05:28:15;;;;;;;14.18;9.95;;;;;;;19.13;65.12;98603.78;5075249;28;20039;-62
2021/09/10 05:30:41;;;;;;;13.77;9.80;;;;;;;19.23;64.85;98624.50;5093286;28;20020;-61
2021/09/10 05:33:06;;;;;;;11.45;9.35;;;;;;;19.26;64.54;98621.44;5063627;28;20104;-62
2021/09/10 05:35:31;;;;;;;13.98;9.65;;;;;;;19.10;64.26;98594.47;5092317;28;20292;-62
2021/09/10 05:37:57;;;;;;;12.25;9.43;;;;;;;19.28;64.20;98630.81;5073306;28;20035;-64
2021/09/10 05:40:22;;;;;;;13.10;10.05;;;;;;;19.31;64.33;98629.56;5088288;28;20342;-61
2021/09/10 05:42:49;;;;;;;12.93;9.57;;;;;;;19.32;63.92;98632.00;5091702;28;20122;-63
2021/09/10 05:45:14;;;;;;;12.98;9.60;;;;;;;19.33;63.80;98635.47;5088230;28;20062;-61
2021/09/10 05:47:40;;;;;;;13.25;9.55;;;;;;;19.16;64.16;98609.47;5067188;28;20028;-60
2021/09/10 05:50:08;;;;;;;11.90;9.93;;;;;;;19.29;64.24;98632.41;5086661;28;20027;-61
2021/09/10 05:52:33;;;;;;;12.80;9.60;;;;;;;19.32;63.93;98645.19;5060153;28;20783;-60
2021/09/10 05:54:58;;;;;;;12.23;9.52;;;;;;;19.05;64.14;98602.16;5073799;28;20111;-64
2021/09/10 05:57:24;;;;;;;12.02;9.70;;;;;;;19.29;64.09;98637.69;5093785;28;20807;-60
2021/09/10 05:59:49;;;;;;;11.85;9.27;;;;;;;19.31;64.11;98646.22;5071325;28;20040;-63
2021/09/10 06:02:15;;;;;;;13.20;9.65;;;;;;;19.33;64.21;98641.56;5099199;28;20039;-62
2021/09/10 06:04:40;;;;;;;15.38;10.10;;;;;;;19.30;64.29;98647.22;5094955;28;20332;-60
2021/09/10 06:07:05;;;;;;;12.73;10.00;;;;;;;19.37;64.21;98661.22;5075226;28;20063;-61
2021/09/10 06:09:31;;;;;;;13.43;9.73;;;;;;;19.10;64.79;98622.66;5076245;28;20024;-61
2021/09/10 06:11:57;;;;;;;13.27;9.73;;;;;;;18.93;64.71;98598.47;5078038;28;20047;-61
2021/09/10 06:14:22;;;;;;;13.02;9.90;;;;;;;19.31;65.04;98658.56;5083979;28;20548;-60
2021/09/10 06:16:47;;;;;;;13.25;9.80;;;;;;;19.41;65.05;98669.56;5078847;28;20089;-60
2021/09/10 06:19:13;;;;;;;12.65;9.73;;;;;;;19.31;65.52;98663.84;5097084;27;20050;-60
2021/09/10 06:21:38;;;;;;;11.63;9.35;;;;;;;19.29;65.28;98661.41;5073260;28;20038;-60
2021/09/10 06:24:04;;;;;;;14.13;10.63;;;;;;;19.32;65.42;98663.66;5080745;28;20034;-63
2021/09/10 06:26:29;;;;;;;12.82;9.60;;;;;;;19.36;65.57;98664.06;5062934;28;20039;-60
2021/09/10 06:28:55;;;;;;;11.27;9.88;;;;;;;19.29;65.52;98656.13;5066517;28;20028;-61
2021/09/10 06:31:20;;;;;;;12.70;9.98;;;;;;;19.40;65.56;98668.75;5090883;28;20133;-61
2021/09/10 06:33:46;;;;;;;12.48;10.18;;;;;;;19.07;65.42;98628.31;5070080;28;20619;-60
2021/09/10 06:36:11;;;;;;;15.00;10.45;;;;;;;19.13;65.60;98635.41;5084501;28;20036;-62
2021/09/10 06:38:36;;;;;;;12.52;9.95;;;;;;;19.34;65.80;98672.16;5073809;28;20020;-60
2021/09/10 06:41:02;;;;;;;12.73;10.75;;;;;;;19.29;65.90;98669.31;5078879;28;20020;-59
2021/09/10 06:43:27;;;;;;;12.80;10.85;;;;;;;19.28;65.88;98670.34;5088075;28;20582;-62
2021/09/10 06:45:52;;;;;;;12.75;9.85;;;;;;;19.31;65.80;98671.75;5086377;28;20024;-60
2021/09/10 06:48:18;;;;;;;12.60;10.43;;;;;;;19.40;65.83;98671.38;5076268;28;20051;-60
2021/09/10 06:50:43;;;;;;;12.73;10.18;;;;;;;19.35;66.00;98675.63;5083619;28;20382;-59
2021/09/10 06:53:09;;;;;;;12.40;10.27;;;;;;;19.29;66.19;98668.50;5077919;28;20168;-62
2021/09/10 06:55:35;;;;;;;13.05;10.02;;;;;;;19.35;66.40;98673.81;5072521;28;20639;-60
2021/09/10 06:58:01;;;;;;;12.25;10.48;;;;;;;19.42;66.35;98683.53;5075611;28;20699;-61
2021/09/10 07:00:26;;;;;;;14.85;11.02;;;;;;;19.39;65.91;98687.41;5060116;28;20028;-65
2021/09/10 07:02:51;;;;;;;13.85;10.70;;;;;;;19.19;65.77;98655.72;5060976;28;20353;-61
2021/09/10 07:05:17;;;;;;;13.40;10.88;;;;;;;19.28;65.79;98659.00;5064630;28;20622;-64
2021/09/10 07:07:42;;;;;;;14.02;10.25;;;;;;;19.42;65.83;98686.97;5072787;28;20028;-60
2021/09/10 07:10:08;;;;;;;13.40;10.10;;;;;;;19.50;65.87;98686.00;5097310;28;20031;-61
2021/09/10 07:12:33;;;;;;;12.30;10.05;;;;;;;19.26;65.95;98648.66;5069299;28;20059;-61
2021/09/10 07:14:59;;;;;;;13.43;10.05;;;;;;;19.26;66.26;98651.28;5080106;28;20089;-61
2021/09/10 07:17:24;;;;;;;12.93;10.25;;;;;;;19.45;66.04;98686.59;5094042;28;20754;-61
2021/09/10 07:19:50;;;;;;;14.65;10.38;;;;;;;19.46;65.75;98685.59;5090086;28;20035;-62
2021/09/10 07:22:15;;;;;;;14.55;10.40;;;;;;;19.51;65.65;98695.53;5091167;28;20024;-61
2021/09/10 07:24:41;;;;;;;12.93;10.25;;;;;;;19.48;65.38;98701.22;5076344;28;20769;-64
2021/09/10 07:27:06;;;;;;;14.25;9.90;;;;;;;19.47;65.76;98691.66;5081191;28;20057;-64
2021/09/10 07:29:32;;;;;;;13.93;9.98;;;;;;;19.54;65.38;98698.56;5088308;28;20044;-61
2021/09/10 07:31:57;;;;;;;12.60;10.48;;;;;;;19.51;65.39;98692.88;5070310;28;20070;-63
2021/09/10 07:34:22;;;;;;;14.73;10.50;;;;;;;19.57;65.15;98692.09;5063993;28;20474;-62
2021/09/10 07:36:52;;;;;;;12.13;9.85;;;;;;;19.57;65.10;98692.09;5089805;28;20482;-60
2021/09/10 07:39:18;;;;;;;12.32;10.75;;;;;;;19.54;64.72;98684.59;5090313;28;20038;-61
2021/09/10 07:41:45;;;;;;;12.93;9.55;;;;;;;19.70;64.07;98701.84;5076773;28;20019;-60
2021/09/10 07:44:10;;;;;;;15.02;9.85;;;;;;;19.63;64.21;98698.41;5074506;28;20470;-61
2021/09/10 07:46:36;;;;;;;12.77;10.45;;;;;;;19.62;64.78;98694.94;5076163;28;20015;-60
2021/09/10 07:49:01;;;;;;;13.70;10.45;;;;;;;19.34;64.77;98651.06;5075951;28;20028;-62
2021/09/10 07:51:27;;;;;;;15.48;11.02;;;;;;;19.54;65.13;98680.09;5077405;28;20034;-62
2021/09/10 07:53:52;;;;;;;13.48;9.88;;;;;;;19.63;64.65;98675.47;5071778;28;20028;-61
2021/09/10 07:56:18;;;;;;;16.75;10.25;;;;;;;19.67;64.25;98675.88;5070370;28;20546;-61
2021/09/10 07:58:43;;;;;;;12.95;9.93;;;;;;;19.73;64.48;98691.75;5091182;28;20118;-61
2021/09/10 08:01:08;;;;;;;14.10;10.30;;;;;;;19.76;63.97;98685.25;5097318;28;20289;-61
2021/09/10 08:03:34;;;;;;;12.93;10.45;;;;;;;19.81;64.23;98695.19;5072014;28;20488;-61
2021/09/10 08:06:00;;;;;;;14.07;10.80;;;;;;;19.91;63.87;98699.03;5071532;28;20023;-62
2021/09/10 08:08:25;;;;;;;11.77;10.00;;;;;;;19.96;64.00;98693.16;5066496;28;20019;-60
2021/09/10 08:10:51;;;;;;;12.10;10.20;;;;;;;19.78;64.35;98662.09;5079938;28;20020;-60
2021/09/10 08:13:16;;;;;;;13.95;9.65;;;;;;;20.02;64.60;98697.63;5088228;28;20051;-61
2021/09/10 08:15:41;;;;;;;12.60;10.10;;;;;;;20.01;64.17;98697.84;5070965;28;20492;-62
2021/09/10 08:18:07;;;;;;;12.57;9.77;;;;;;;19.95;63.35;98695.00;5053955;28;20126;-59
2021/09/10 08:20:32;;;;;;;12.38;10.48;;;;;;;20.02;62.80;98700.25;5070567;28;20068;-60
2021/09/10 08:22:58;;;;;;;13.45;10.60;;;;;;;20.03;62.07;98699.25;5092166;28;20047;-60
2021/09/10 08:25:23;;;;;;;12.15;10.13;;;;;;;20.10;62.04;98699.25;5099585;28;20445;-60
2021/09/10 08:27:48;;;;;;;14.73;10.52;;;;;;;20.16;61.47;98703.72;5073661;28;20039;-62
2021/09/10 08:30:14;;;;;;;13.05;8.88;;;;;;;20.27;60.67;98710.19;5068395;28;20024;-60
2021/09/10 08:32:39;;;;;;;12.98;10.20;;;;;;;20.06;59.86;98667.19;5087772;28;20039;-60
2021/09/10 08:35:05;;;;;;;11.75;9.18;;;;;;;20.32;59.34;98705.13;5075568;28;20035;-61
2021/09/10 08:37:32;;;;;;;13.13;9.27;;;;;;;20.29;60.18;98705.53;5063445;28;20043;-63
2021/09/10 08:39:57;;;;;;;12.93;9.45;;;;;;;20.39;60.87;98705.09;5082293;28;20080;-64
2021/09/10 08:42:23;;;;;;;12.23;9.85;;;;;;;20.39;59.25;98708.56;5097351;28;20031;-62
2021/09/10 08:44:49;;;;;;;11.77;9.63;;;;;;;20.47;59.22;98712.81;5086639;28;20024;-61
2021/09/10 08:47:14;;;;;;;12.85;9.32;;;;;;;20.48;58.72;98707.34;5059274;28;20065;-61
2021/09/10 08:49:41;;;;;;;13.02;9.30;;;;;;;20.31;58.32;98680.53;5077753;28;20036;-60
2021/09/10 08:52:07;;;;;;;11.95;8.63;;;;;;;20.54;58.29;98705.69;5065019;28;20043;-62
2021/09/10 08:54:32;;;;;;;15.13;10.27;;;;;;;20.55;57.87;98696.72;5075137;28;20053;-60
2021/09/10 08:56:58;;;;;;;15.65;10.35;;;;;;;20.67;60.23;98703.03;5066563;28;20024;-64
2021/09/10 08:59:26;;;;;;;13.38;10.32;;;;;;;20.59;60.32;98700.59;5068200;28;20440;-62
2021/09/10 09:01:56;;;;;;;12.57;9.80;;;;;;;20.49;60.61;98676.44;5080329;28;20044;-61
2021/09/10 09:04:23;;;;;;;11.45;9.88;;;;;;;20.52;60.79;98668.13;5074748;28;20544;-61
2021/09/10 09:06:53;;;;;;;12.43;9.30;;;;;;;20.59;59.76;98653.06;5067751;28;20290;-61
2021/09/10 09:09:47;;;;;;;12.27;9.13;;;;;;;20.78;59.80;98695.50;5067977;28;20077;-62
2021/09/10 09:12:13;;;;;;;11.68;9.63;;;;;;;20.84;60.34;98703.38;5060326;28;20478;-61
2021/09/10 09:14:47;;;;;;;14.80;10.20;;;;;;;20.84;60.23;98705.22;5089308;28;20024;-60
2021/09/10 09:17:29;;;;;;;15.10;9.90;;;;;;;20.90;60.82;98696.44;5065743;28;20035;-62
2021/09/10 09:20:24;;;;;;;11.65;9.95;;;;;;;21.00;60.72;98701.31;5083168;28;20106;-61
2021/09/10 09:23:04;;;;;;;12.88;10.00;;;;;;;21.06;60.59;98705.75;5058914;28;20028;-62
2021/09/10 09:25:31;;;;;;;12.50;10.40;;;;;;;21.14;61.62;98697.59;5062856;28;20422;-62
2021/09/10 09:28:27;;;;;;;12.88;10.30;;;;;;;21.39;59.99;98699.47;5069334;28;20633;-62
2021/09/10 09:30:54;;;;;;;13.52;9.95;;;;;;;21.26;59.55;98697.72;5052673;28;20036;-63
2021/09/10 09:33:23;;;;;;;12.40;10.05;;;;;;;21.33;59.93;98703.78;5096971;28;20036;-62
2021/09/10 09:35:50;;;;;;;13.88;9.82;;;;;;;21.17;60.82;98689.22;5079594;28;20042;-62
2021/09/10 09:38:26;;;;;;;12.65;9.82;;;;;;;21.12;60.80;98692.50;5068323;28;20197;-61
2021/09/10 09:41:04;;;;;;;13.95;10.35;;;;;;;21.33;60.55;98695.84;5073431;28;20058;-62
2021/09/10 09:43:30;;;;;;;12.88;10.02;;;;;;;21.47;59.75;98689.47;5070447;28;20028;-63
2021/09/10 09:45:56;;;;;;;12.65;10.20;;;;;;;21.60;59.54;98680.66;5075037;28;20143;-63
2021/09/10 09:48:24;;;;;;;13.93;10.35;;;;;;;21.65;58.59;98687.97;5078289;28;20127;-65
2021/09/10 09:50:52;;;;;;;13.32;10.32;;;;;;;21.61;59.73;98679.63;5077105;28;20028;-61
2021/09/10 09:53:18;;;;;;;13.60;10.15;;;;;;;21.47;58.03;98675.47;5071002;28;20028;-62
2021/09/10 09:55:46;;;;;;;11.70;9.40;;;;;;;21.45;58.14;98664.28;5090684;28;20032;-61
2021/09/10 09:58:13;;;;;;;12.88;9.60;;;;;;;21.52;58.06;98674.81;5085148;28;20110;-63
2021/09/10 10:00:40;;;;;;;14.15;9.60;;;;;;;21.55;57.91;98659.31;5081039;28;20042;-62
2021/09/10 10:03:06;;;;;;;12.57;10.13;;;;;;;21.46;57.92;98655.31;5064763;28;20048;-63
2021/09/10 10:05:53;;;;;;;12.77;9.60;;;;;;;21.68;57.66;98659.22;5077821;28;20027;-62
2021/09/10 10:08:23;;;;;;;12.75;10.05;;;;;;;21.56;56.66;98665.41;5100651;28;20055;-63
2021/09/10 10:10:56;;;;;;;15.00;9.52;;;;;;;21.58;56.09;98658.09;5071811;28;20105;-63
2021/09/10 10:13:26;;;;;;;15.20;9.13;;;;;;;21.56;56.14;98650.38;5080129;28;20019;-61
2021/09/10 10:15:52;;;;;;;12.60;9.38;;;;;;;21.72;57.01;98654.28;5073729;28;20487;-65
2021/09/10 10:18:36;;;;;;;12.38;9.60;;;;;;;21.68;57.88;98655.75;5066335;28;20122;-66
2021/09/10 10:21:02;;;;;;;12.75;9.73;;;;;;;21.64;57.70;98647.44;5079411;28;20036;-61
2021/09/10 10:23:43;;;;;;;12.07;9.80;;;;;;;21.62;57.69;98654.78;5056539;28;20444;-62
2021/09/10 10:26:31;;;;;;;14.85;9.70;;;;;;;21.66;57.42;98655.16;5089699;28;20039;-61
2021/09/10 10:29:06;;;;;;;14.60;9.65;;;;;;;21.64;57.93;98655.38;5066964;28;20039;-61
2021/09/10 10:32:06;;;;;;;11.27;9.25;;;;;;;21.63;57.94;98652.94;5094041;28;20736;-61
2021/09/10 10:34:36;;;;;;;11.32;9.55;;;;;;;21.75;58.52;98661.00;5081910;28;20038;-64
2021/09/10 10:37:10;;;;;;;13.07;9.65;;;;;;;21.67;57.65;98659.44;5061165;28;20497;-63
2021/09/10 10:39:36;;;;;;;12.55;9.25;;;;;;;21.65;56.34;98627.91;5069902;28;20032;-61
2021/09/10 10:42:03;;;;;;;12.50;9.48;;;;;;;21.72;55.43;98629.69;5091084;28;20031;-64
2021/09/10 10:44:35;;;;;;;12.18;9.52;;;;;;;21.94;55.18;98657.38;5075611;28;20098;-62
2021/09/10 10:47:10;;;;;;;10.55;9.00;;;;;;;21.80;54.17;98610.88;5077288;28;20032;-61
2021/09/10 10:49:37;;;;;;;11.30;9.65;;;;;;;22.13;53.88;98647.63;5088574;28;20023;-62
2021/09/10 10:52:22;;;;;;;10.80;8.95;;;;;;;22.30;53.20;98655.84;5074491;28;20047;-62
2021/09/10 10:55:19;;;;;;;14.20;9.35;;;;;;;22.36;53.74;98649.69;5086773;28;20462;-63
2021/09/10 10:57:49;;;;;;;10.73;8.95;;;;;;;22.39;52.12;98643.91;5089645;28;20080;-63
2021/09/10 11:00:33;;;;;;;12.27;9.10;;;;;;;22.20;52.10;98616.59;5078241;28;20055;-64
2021/09/10 11:03:14;;;;;;;12.07;8.75;;;;;;;22.41;51.54;98655.09;5100469;28;20027;-63
2021/09/10 11:05:43;;;;;;;11.77;9.05;;;;;;;22.45;51.61;98648.34;5098592;28;20024;-61
2021/09/10 11:08:09;;;;;;;14.40;8.73;;;;;;;22.35;51.32;98621.56;5078761;28;20547;-63
2021/09/10 11:10:35;;;;;;;13.60;9.88;;;;;;;22.37;51.04;98627.44;5093407;28;20024;-64
2021/09/10 11:13:01;;;;;;;11.38;8.98;;;;;;;22.61;51.03;98646.13;5072357;28;20042;-61
2021/09/10 11:15:34;;;;;;;13.73;9.82;;;;;;;22.64;48.13;98643.03;5073508;28;20148;-65
2021/09/10 11:18:09;;;;;;;16.25;11.45;;;;;;;22.64;45.12;98641.19;5070259;28;20043;-62
2021/09/10 11:20:42;;;;;;;13.07;9.77;;;;;;;22.75;47.22;98630.91;5072601;28;20126;-62
2021/09/10 11:23:10;;;;;;;13.00;10.40;;;;;;;22.80;47.79;98636.34;5087455;28;20051;-62
2021/09/10 11:25:56;;;;;;;12.38;9.73;;;;;;;22.82;48.21;98636.91;5074036;28;20134;-62